Time;durP1;ratioP1;P1;durP2;ratioP2;P2;SDS_P1;SDS_P2;PMS_P1;PMS_P2;Temp;Humidity;BMP_temperature;BMP_pressure;BME280_temperature;BME280_humidity;BME280_pressure;Samples;Min_cycle;Max_cycle;Signal;HPM_P1;HPM_P2
2021/10/27 00:01:44;;;;;;;7.97;4.53;;;21.60;53.90;;;;;;5216590;28;20059;-68
2021/10/27 00:04:17;;;;;;;8.00;4.53;;;21.60;53.80;;;;;;5224775;28;20044;-68
2021/10/27 00:06:49;;;;;;;7.38;4.35;;;21.60;53.80;;;;;;5224492;28;20656;-68
2021/10/27 00:09:22;;;;;;;8.07;4.22;;;21.60;53.80;;;;;;5229215;28;20408;-68
2021/10/27 00:11:54;;;;;;;6.65;3.97;;;21.60;53.70;;;;;;5225189;28;20045;-68
2021/10/27 00:14:27;;;;;;;6.30;4.13;;;21.60;53.70;;;;;;5223605;28;20040;-68
2021/10/27 00:17:00;;;;;;;4.63;3.88;;;21.60;53.70;;;;;;5226181;28;20040;-68
2021/10/27 00:19:32;;;;;;;6.63;4.55;;;21.60;53.60;;;;;;5228018;28;20055;-68
2021/10/27 00:22:04;;;;;;;6.70;4.40;;;21.60;53.70;;;;;;5223178;28;20052;-68
2021/10/27 00:24:37;;;;;;;7.53;5.03;;;21.60;53.60;;;;;;5227422;28;20071;-68
2021/10/27 00:27:09;;;;;;;5.82;3.45;;;21.60;53.60;;;;;;5222501;28;20095;-68
2021/10/27 00:29:42;;;;;;;4.82;3.85;;;21.60;53.60;;;;;;5224791;28;20037;-68
2021/10/27 00:32:14;;;;;;;5.38;3.90;;;21.60;53.60;;;;;;5224513;28;20045;-68
2021/10/27 00:34:47;;;;;;;4.47;3.67;;;21.60;53.60;;;;;;5226024;28;20052;-68
2021/10/27 00:37:19;;;;;;;5.97;4.07;;;21.60;53.60;;;;;;5222009;28;20076;-68
2021/10/27 00:39:52;;;;;;;7.70;4.40;;;21.60;53.50;;;;;;5223074;28;20412;-68
2021/10/27 00:42:24;;;;;;;5.70;4.18;;;21.60;53.50;;;;;;5220950;28;20060;-68
2021/10/27 00:44:57;;;;;;;5.35;3.65;;;21.60;53.50;;;;;;5224220;28;20040;-68
2021/10/27 00:47:29;;;;;;;5.53;3.70;;;21.60;53.40;;;;;;5222889;28;20059;-68
2021/10/27 00:50:02;;;;;;;6.95;3.75;;;21.60;53.40;;;;;;5222168;28;20060;-67
2021/10/27 00:52:35;;;;;;;4.22;3.45;;;21.60;53.40;;;;;;5222095;28;20059;-68
2021/10/27 00:55:08;;;;;;;5.45;3.65;;;21.50;53.40;;;;;;5227164;28;20401;-68
2021/10/27 00:57:42;;;;;;;5.32;3.40;;;21.60;53.40;;;;;;5220150;28;20492;-68
2021/10/27 01:00:14;;;;;;;5.82;4.05;;;21.60;53.30;;;;;;5227482;28;20652;-68
2021/10/27 01:02:47;;;;;;;4.27;3.53;;;21.60;53.30;;;;;;5224765;28;20064;-68
2021/10/27 01:05:20;;;;;;;5.05;3.90;;;21.60;53.40;;;;;;5224156;28;20052;-68
2021/10/27 01:07:54;;;;;;;4.65;3.35;;;21.60;53.40;;;;;;5213798;28;20047;-68
2021/10/27 01:10:26;;;;;;;7.95;3.63;;;21.50;53.30;;;;;;5224241;28;20416;-68
2021/10/27 01:12:58;;;;;;;5.38;3.30;;;21.50;53.20;;;;;;5221638;28;20059;-70
2021/10/27 01:15:31;;;;;;;4.85;3.58;;;21.50;53.20;;;;;;5227439;28;20045;-68
2021/10/27 01:18:03;;;;;;;5.95;3.53;;;21.50;53.10;;;;;;5222151;28;20052;-68
2021/10/27 01:20:36;;;;;;;7.53;3.55;;;21.60;53.10;;;;;;5222427;28;21353;-68
2021/10/27 01:23:08;;;;;;;3.58;3.08;;;21.60;53.10;;;;;;5220730;28;20067;-68
2021/10/27 01:25:40;;;;;;;5.32;3.42;;;21.50;53.10;;;;;;5225575;28;20785;-68
2021/10/27 01:28:13;;;;;;;5.85;3.60;;;21.60;53.10;;;;;;5218708;28;20712;-68
2021/10/27 01:30:45;;;;;;;4.65;3.30;;;21.60;53.00;;;;;;5224140;28;20067;-68
2021/10/27 01:33:17;;;;;;;5.28;3.20;;;21.50;52.90;;;;;;5224864;28;20048;-67
2021/10/27 01:35:50;;;;;;;5.55;3.40;;;21.60;53.00;;;;;;5221286;28;20045;-67
2021/10/27 01:38:22;;;;;;;4.13;3.17;;;21.50;52.90;;;;;;5222871;28;20056;-68
2021/10/27 01:40:55;;;;;;;5.65;3.17;;;21.60;52.90;;;;;;5225557;28;20416;-68
2021/10/27 01:43:27;;;;;;;5.10;2.95;;;21.50;52.70;;;;;;5223768;28;20612;-68
2021/10/27 01:46:00;;;;;;;7.67;3.00;;;21.50;52.70;;;;;;5227145;28;20098;-68
2021/10/27 01:48:32;;;;;;;6.05;2.97;;;21.50;52.70;;;;;;5223117;28;20049;-68
2021/10/27 01:51:04;;;;;;;8.38;3.33;;;21.50;52.70;;;;;;5224676;28;20037;-68
2021/10/27 01:53:37;;;;;;;6.03;3.25;;;21.50;52.70;;;;;;5227447;28;20060;-68
2021/10/27 01:56:09;;;;;;;4.57;2.97;;;21.50;52.60;;;;;;5223608;28;20040;-68
2021/10/27 01:58:41;;;;;;;7.88;2.95;;;21.50;52.50;;;;;;5226858;28;20416;-68
2021/10/27 02:01:15;;;;;;;5.65;3.03;;;21.60;52.50;;;;;;5221748;28;20421;-68
2021/10/27 02:03:48;;;;;;;19.35;3.13;;;21.50;52.40;;;;;;5224680;28;20063;-67
2021/10/27 02:06:21;;;;;;;4.85;3.25;;;21.50;52.50;;;;;;5223795;28;20048;-68
2021/10/27 02:08:53;;;;;;;3.47;2.47;;;21.50;52.60;;;;;;5226150;28;20049;-68
2021/10/27 02:11:25;;;;;;;7.90;3.30;;;21.50;52.50;;;;;;5227163;28;20041;-68
2021/10/27 02:13:58;;;;;;;6.07;3.33;;;21.50;52.40;;;;;;5224264;28;20488;-68
2021/10/27 02:16:30;;;;;;;4.22;2.95;;;21.50;52.30;;;;;;5224254;28;20606;-68
2021/10/27 02:19:06;;;;;;;3.70;2.70;;;21.50;52.30;;;;;;5220471;28;20045;-68
2021/10/27 02:21:38;;;;;;;3.83;2.60;;;21.50;52.20;;;;;;5223607;28;20500;-68
2021/10/27 02:24:10;;;;;;;4.05;2.65;;;21.50;52.30;;;;;;5223537;28;20047;-68
2021/10/27 02:26:43;;;;;;;3.45;2.88;;;21.50;52.30;;;;;;5222444;28;20040;-68
2021/10/27 02:29:15;;;;;;;4.13;2.83;;;21.50;52.30;;;;;;5218780;28;20049;-68
2021/10/27 02:31:48;;;;;;;4.28;2.72;;;21.50;52.30;;;;;;5218550;28;20056;-68
2021/10/27 02:34:20;;;;;;;4.57;3.13;;;21.50;52.30;;;;;;5220541;28;20558;-68
2021/10/27 02:36:52;;;;;;;5.15;2.90;;;21.50;52.30;;;;;;5218023;28;20041;-68
2021/10/27 02:39:25;;;;;;;6.30;3.00;;;21.50;52.30;;;;;;5217161;28;20049;-68
2021/10/27 02:41:57;;;;;;;4.60;2.33;;;21.50;52.30;;;;;;5224660;28;20048;-68
2021/10/27 02:44:30;;;;;;;5.28;2.90;;;21.50;52.30;;;;;;5202257;28;20044;-68
2021/10/27 02:47:03;;;;;;;2.90;2.30;;;21.50;52.30;;;;;;5221636;28;20052;-68
2021/10/27 02:49:35;;;;;;;;;;;21.50;52.30;;;;;;5219805;28;20052;-69
2021/10/27 02:52:09;;;;;;;3.47;2.38;;;21.40;52.20;;;;;;5204745;28;19920;-68
2021/10/27 02:54:42;;;;;;;4.15;2.65;;;21.40;52.30;;;;;;5223943;28;20040;-68
2021/10/27 02:57:14;;;;;;;4.20;2.60;;;21.40;52.30;;;;;;5222111;28;20408;-68
2021/10/27 02:59:46;;;;;;;5.00;3.00;;;21.40;52.30;;;;;;5223324;28;20056;-68
2021/10/27 03:02:19;;;;;;;4.90;2.40;;;21.40;52.30;;;;;;5222612;28;20263;-68
2021/10/27 03:04:51;;;;;;;5.05;2.53;;;21.40;52.30;;;;;;5222610;28;20056;-68
2021/10/27 03:07:24;;;;;;;6.38;2.40;;;21.40;52.10;;;;;;5221689;28;20513;-68
2021/10/27 03:09:56;;;;;;;3.05;2.30;;;21.40;52.10;;;;;;5218160;28;20417;-67
2021/10/27 03:12:28;;;;;;;5.10;2.17;;;21.40;52.10;;;;;;5219627;28;20047;-68
2021/10/27 03:15:01;;;;;;;4.38;2.35;;;21.50;52.10;;;;;;5218354;28;21618;-68
2021/10/27 03:17:34;;;;;;;3.58;2.58;;;21.40;52.10;;;;;;5180635;28;1054726;-68
2021/10/27 03:20:07;;;;;;;2.90;2.25;;;21.40;52.20;;;;;;5219083;28;20032;-68
2021/10/27 03:22:39;;;;;;;6.20;2.70;;;21.40;52.10;;;;;;5214890;28;20147;-68
2021/10/27 03:25:12;;;;;;;5.65;2.75;;;21.40;52.00;;;;;;5220598;28;20045;-68
2021/10/27 03:27:44;;;;;;;2.50;2.13;;;21.50;52.20;;;;;;5197689;28;20057;-68
2021/10/27 03:30:16;;;;;;;5.10;2.58;;;21.40;52.10;;;;;;5220836;28;20769;-68
2021/10/27 03:32:49;;;;;;;3.75;2.28;;;21.40;52.20;;;;;;5222258;28;20045;-68
2021/10/27 03:35:21;;;;;;;5.45;2.50;;;21.40;52.20;;;;;;5227489;28;20044;-68
2021/10/27 03:37:54;;;;;;;4.38;2.17;;;21.40;52.10;;;;;;5223740;28;20045;-68
2021/10/27 03:40:26;;;;;;;3.00;2.00;;;21.40;52.10;;;;;;5227869;28;20051;-67
2021/10/27 03:42:58;;;;;;;2.28;1.90;;;21.40;52.10;;;;;;5226652;28;20049;-68
2021/10/27 03:45:31;;;;;;;3.80;2.30;;;21.40;52.20;;;;;;5209399;28;20056;-68
2021/10/27 03:48:04;;;;;;;4.90;2.33;;;21.40;52.10;;;;;;5199792;28;20045;-68
2021/10/27 03:50:37;;;;;;;4.63;2.75;;;21.40;52.00;;;;;;5220944;28;20053;-68
2021/10/27 03:53:09;;;;;;;2.95;1.90;;;21.40;52.00;;;;;;5218855;28;20303;-67
2021/10/27 03:55:42;;;;;;;5.80;2.15;;;21.40;51.90;;;;;;5218023;28;20515;-67
2021/10/27 03:58:14;;;;;;;5.30;2.45;;;21.40;51.90;;;;;;5221707;28;20048;-67
2021/10/27 04:00:47;;;;;;;3.85;2.10;;;21.40;51.70;;;;;;5218000;28;20044;-68
2021/10/27 04:03:23;;;;;;;2.65;2.13;;;21.40;51.60;;;;;;5210019;28;20041;-67
2021/10/27 04:05:56;;;;;;;5.40;2.20;;;21.40;51.50;;;;;;5216557;28;20051;-67
2021/10/27 04:08:29;;;;;;;4.82;2.50;;;21.40;51.50;;;;;;5210364;28;20576;-68
2021/10/27 04:11:01;;;;;;;3.50;2.03;;;21.40;51.40;;;;;;5214723;28;20048;-68
2021/10/27 04:13:35;;;;;;;4.55;2.33;;;21.40;51.30;;;;;;5212167;28;20056;-68
2021/10/27 04:16:07;;;;;;;4.25;2.47;;;21.40;51.30;;;;;;5198424;28;20985;-69
2021/10/27 04:18:40;;;;;;;4.25;2.17;;;21.30;51.20;;;;;;5213830;28;20626;-68
2021/10/27 04:21:13;;;;;;;4.83;2.13;;;21.30;51.10;;;;;;5209771;28;20041;-68
2021/10/27 04:23:45;;;;;;;3.63;2.13;;;21.30;51.10;;;;;;5211204;28;20068;-68
2021/10/27 04:26:17;;;;;;;2.85;1.85;;;21.30;51.00;;;;;;5220418;28;20048;-67
2021/10/27 04:28:52;;;;;;;6.75;2.85;;;21.30;51.00;;;;;;5205349;28;20044;-67
2021/10/27 04:31:24;;;;;;;4.28;2.40;;;21.30;50.90;;;;;;5221182;28;20037;-67
2021/10/27 04:33:57;;;;;;;3.35;2.22;;;21.30;51.00;;;;;;5215782;28;20503;-67
2021/10/27 04:36:29;;;;;;;2.95;2.15;;;21.30;51.00;;;;;;5216807;28;20693;-67
2021/10/27 04:39:02;;;;;;;3.95;1.80;;;21.30;50.90;;;;;;5218003;28;20056;-67
2021/10/27 04:41:35;;;;;;;5.88;2.28;;;21.40;50.90;;;;;;5221692;28;20057;-67
2021/10/27 04:44:07;;;;;;;10.20;2.20;;;21.40;50.90;;;;;;5223765;28;20057;-67
2021/10/27 04:46:39;;;;;;;4.25;2.17;;;21.40;50.90;;;;;;5223591;28;20072;-67
2021/10/27 04:49:12;;;;;;;4.38;2.45;;;21.40;50.80;;;;;;5220915;28;20048;-67
2021/10/27 04:51:44;;;;;;;3.28;1.90;;;21.40;50.80;;;;;;5212729;28;20048;-67
2021/10/27 04:54:17;;;;;;;6.90;2.00;;;21.40;50.60;;;;;;5219560;28;20052;-68
2021/10/27 04:56:49;;;;;;;6.53;1.92;;;21.50;50.60;;;;;;5212847;28;20048;-68
2021/10/27 04:59:22;;;;;;;6.00;1.73;;;21.50;51.20;;;;;;5213656;28;20056;-67
2021/10/27 05:01:55;;;;;;;4.80;2.17;;;21.50;50.60;;;;;;5207464;28;20052;-68
2021/10/27 05:04:28;;;;;;;8.95;2.35;;;21.40;50.30;;;;;;5198349;28;20053;-67
2021/10/27 05:07:00;;;;;;;7.03;2.35;;;21.50;50.70;;;;;;5215446;28;20063;-67
2021/10/27 05:09:33;;;;;;;9.50;2.45;;;21.50;51.20;;;;;;5207526;28;20048;-68
2021/10/27 05:12:05;;;;;;;10.95;2.60;;;21.60;51.70;;;;;;5209035;28;20056;-68
2021/10/27 05:14:41;;;;;;;19.55;2.67;;;21.60;52.20;;;;;;5210327;28;20044;-68
2021/10/27 05:17:14;;;;;;;35.17;3.90;;;21.60;52.70;;;;;;5214365;28;20036;-68
2021/10/27 05:19:46;;;;;;;12.02;2.67;;;21.60;52.70;;;;;;5220709;28;20071;-68
2021/10/27 05:22:19;;;;;;;20.15;3.85;;;21.60;52.90;;;;;;5196166;28;20056;-68
2021/10/27 05:24:51;;;;;;;8.07;2.50;;;21.70;53.10;;;;;;5212512;28;20570;-68
2021/10/27 05:27:23;;;;;;;10.10;2.22;;;21.70;53.20;;;;;;5214529;28;20049;-67
2021/10/27 05:29:56;;;;;;;8.88;2.20;;;21.70;53.30;;;;;;5205409;28;20519;-67
2021/10/27 05:32:29;;;;;;;6.50;2.10;;;21.80;53.40;;;;;;5214064;28;20249;-67
2021/10/27 05:35:01;;;;;;;10.18;2.38;;;21.80;53.50;;;;;;5210894;28;20048;-68
2021/10/27 05:37:33;;;;;;;15.02;2.85;;;21.80;53.60;;;;;;5211918;28;20767;-67
2021/10/27 05:40:06;;;;;;;14.20;2.97;;;21.80;53.70;;;;;;5225497;28;20037;-67
2021/10/27 05:42:40;;;;;;;5.93;2.50;;;21.80;53.80;;;;;;5226954;28;20041;-67
2021/10/27 05:45:14;;;;;;;11.43;2.03;;;21.80;53.70;;;;;;5225368;28;20055;-67
2021/10/27 05:47:49;;;;;;;7.65;2.50;;;21.80;53.70;;;;;;5224351;28;20507;-67
2021/10/27 05:50:27;;;;;;;12.70;2.45;;;21.90;53.60;;;;;;5222840;28;20033;-67
2021/10/27 05:55:51;;;;;;;7.88;1.98;;;21.90;53.50;;;;;;5210692;28;20048;-68
2021/10/27 05:58:24;;;;;;;10.80;2.30;;;21.90;53.50;;;;;;5212613;28;20749;-68
2021/10/27 06:00:58;;;;;;;8.30;2.83;;;21.90;53.50;;;;;;5218881;28;20055;-68
2021/10/27 06:03:30;;;;;;;7.10;2.10;;;21.90;53.50;;;;;;5216943;28;20690;-68
2021/10/27 06:06:03;;;;;;;11.55;2.20;;;21.90;53.50;;;;;;5215469;28;20496;-68
2021/10/27 06:08:35;;;;;;;4.82;1.77;;;21.90;53.50;;;;;;5216561;28;20048;-68
2021/10/27 06:11:13;;;;;;;5.05;2.50;;;21.90;53.50;;;;;;5220911;28;20063;-68
2021/10/27 06:13:46;;;;;;;6.32;2.22;;;21.90;53.60;;;;;;5223258;28;20511;-67
2021/10/27 06:16:18;;;;;;;9.93;2.30;;;22.00;53.60;;;;;;5218070;28;20414;-68
2021/10/27 06:18:51;;;;;;;7.57;1.83;;;22.00;53.60;;;;;;5217860;28;20413;-68
2021/10/27 06:21:24;;;;;;;13.82;2.30;;;22.00;53.70;;;;;;5219130;28;20044;-68
2021/10/27 06:24:01;;;;;;;7.05;1.60;;;22.00;53.70;;;;;;5219575;28;20067;-68
2021/10/27 06:26:34;;;;;;;4.57;1.77;;;22.00;53.70;;;;;;5217932;28;20054;-68
2021/10/27 06:29:10;;;;;;;6.07;2.55;;;22.00;53.80;;;;;;5213626;28;20298;-68
2021/10/27 06:31:46;;;;;;;5.15;1.75;;;22.00;53.80;;;;;;5219563;28;20044;-69
2021/10/27 06:34:31;;;;;;;5.18;1.92;;;22.00;53.80;;;;;;5205859;28;20883;-68
2021/10/27 06:48:48;;;;;;;3.75;2.05;;;22.10;54.00;;;;;;5152103;28;20427;-68
2021/10/27 06:51:20;;;;;;;;;;;22.00;53.90;;;;;;5147717;28;20076;-68
2021/10/27 06:53:53;;;;;;;5.07;2.00;;;22.00;53.90;;;;;;5190148;28;19921;-67
2021/10/27 06:56:26;;;;;;;5.90;1.80;;;22.00;53.80;;;;;;5220753;28;20056;-68
2021/10/27 07:14:57;;;;;;;5.53;2.10;;;22.10;53.60;;;;;;5217725;28;20051;-68
2021/10/27 07:15:48;;;;;;;4.63;1.50;;;22.20;53.60;;;;;;5221355;28;20044;-68
2021/10/27 07:18:21;;;;;;;2.45;1.35;;;22.20;53.60;;;;;;5224625;28;20631;-67
2021/10/27 07:20:53;;;;;;;5.70;1.80;;;22.20;53.60;;;;;;5226323;28;20763;-68
2021/10/27 07:23:27;;;;;;;5.20;1.92;;;22.20;53.60;;;;;;5226250;28;20290;-69
2021/10/27 07:26:00;;;;;;;3.60;1.38;;;22.20;53.60;;;;;;5225301;28;20048;-68
2021/10/27 07:28:32;;;;;;;3.92;1.90;;;22.20;53.60;;;;;;5225073;28;20048;-68
2021/10/27 07:31:08;;;;;;;3.73;1.73;;;22.20;53.50;;;;;;5223333;28;20055;-68
2021/10/27 07:33:40;;;;;;;3.17;1.58;;;22.20;53.60;;;;;;5223773;28;20318;-68
2021/10/27 07:41:43;;;;;;;2.75;1.85;;;22.20;53.60;;;;;;5221037;28;20059;-68
2021/10/27 07:44:17;;;;;;;3.75;1.55;;;22.20;53.60;;;;;;5219084;28;20048;-68
2021/10/27 07:46:49;;;;;;;4.13;1.88;;;22.20;53.60;;;;;;5216613;28;20052;-68
2021/10/27 07:49:22;;;;;;;2.57;1.50;;;22.20;53.60;;;;;;5218283;28;20821;-68
2021/10/27 07:51:57;;;;;;;5.22;1.58;;;22.30;53.70;;;;;;5216437;28;20056;-68
2021/10/27 07:54:30;;;;;;;5.30;1.77;;;22.20;53.60;;;;;;5221509;28;20049;-68
2021/10/27 07:57:02;;;;;;;4.78;1.77;;;22.20;53.60;;;;;;5219861;28;20060;-68
2021/10/27 07:59:35;;;;;;;3.50;1.80;;;22.20;53.60;;;;;;5217000;28;20549;-68
2021/10/27 08:02:07;;;;;;;4.40;1.65;;;22.30;53.70;;;;;;5215047;28;20075;-68
2021/10/27 08:04:40;;;;;;;7.82;2.45;;;22.20;53.60;;;;;;5217768;28;20083;-68
2021/10/27 08:07:13;;;;;;;3.38;1.65;;;22.30;53.70;;;;;;5220317;28;20090;-68
2021/10/27 08:09:45;;;;;;;5.47;2.28;;;22.30;53.70;;;;;;5224717;28;20048;-68
2021/10/27 08:12:20;;;;;;;9.50;2.10;;;22.30;53.70;;;;;;5202142;28;20770;-68
2021/10/27 08:14:55;;;;;;;3.60;1.90;;;22.30;53.80;;;;;;5220992;28;20060;-68
2021/10/27 08:17:27;;;;;;;5.03;1.88;;;22.30;53.80;;;;;;5217752;28;20516;-68
2021/10/27 08:20:00;;;;;;;5.20;1.93;;;22.30;53.80;;;;;;5221046;28;20051;-68
2021/10/27 08:22:32;;;;;;;5.53;1.88;;;22.30;53.80;;;;;;5224205;28;20056;-68
2021/10/27 08:25:07;;;;;;;7.37;1.70;;;22.30;53.90;;;;;;5223984;28;20052;-68
2021/10/27 08:27:39;;;;;;;6.20;1.88;;;22.30;53.90;;;;;;5223953;28;20307;-68
2021/10/27 08:30:13;;;;;;;4.57;1.73;;;22.30;53.90;;;;;;5227605;28;20063;-68
2021/10/27 08:32:56;;;;;;;3.33;1.98;;;22.30;54.00;;;;;;5208245;28;20048;-68
2021/10/27 08:35:30;;;;;;;4.72;1.70;;;22.30;54.00;;;;;;5219280;28;20032;-67
2021/10/27 08:38:03;;;;;;;6.68;1.75;;;22.30;54.10;;;;;;5222130;28;21122;-68
2021/10/27 08:40:41;;;;;;;3.03;1.65;;;22.30;54.10;;;;;;5224013;28;20047;-68
2021/10/27 08:43:13;;;;;;;3.17;1.55;;;22.30;54.10;;;;;;5217718;28;20052;-68
2021/10/27 08:45:46;;;;;;;4.90;1.70;;;22.30;54.10;;;;;;5218123;28;20052;-68
2021/10/27 08:51:59;;;;;;;2.67;1.75;;;22.40;54.30;;;;;;5229443;28;20051;-61
2021/10/27 08:54:33;;;;;;;2.72;1.75;;;22.30;54.40;;;;;;5249748;28;20044;-59
2021/10/27 08:57:09;;;;;;;6.45;1.90;;;22.30;54.40;;;;;;5233571;28;20520;-59
2021/10/27 08:59:53;;;;;;;3.88;1.52;;;22.30;54.40;;;;;;5239983;28;20040;-61
2021/10/27 09:02:47;;;;;;;4.32;1.42;;;22.30;54.40;;;;;;5246993;28;20311;-58
2021/10/27 09:05:40;;;;;;;3.95;1.88;;;22.40;54.40;;;;;;5247243;28;20055;-60
2021/10/27 09:34:03;;;;;;;3.45;1.60;;;22.40;54.80;;;;;;5241907;28;20052;-59
2021/10/27 10:05:35;;;;;;;3.33;1.55;;;22.40;55.00;;;;;;5241441;28;20052;-57
2021/10/27 10:17:54;;;;;;;3.38;1.27;;;22.40;55.10;;;;;;5235966;28;20055;-58
2021/10/27 10:20:27;;;;;;;2.20;1.27;;;22.40;55.10;;;;;;5230890;28;20040;-57
2021/10/27 10:23:32;;;;;;;2.20;1.55;;;22.40;55.10;;;;;;5244579;28;20538;-60
2021/10/27 10:26:08;;;;;;;2.17;1.40;;;22.40;55.10;;;;;;5245551;28;20056;-60
2021/10/27 10:28:43;;;;;;;3.05;1.30;;;22.40;55.80;;;;;;5237476;28;21065;-57
2021/10/27 10:31:31;;;;;;;1.85;1.27;;;22.50;55.10;;;;;;5238185;28;20067;-59
2021/10/27 10:34:13;;;;;;;2.83;1.17;;;22.50;55.00;;;;;;5232671;28;20044;-58
2021/10/27 10:36:46;;;;;;;1.63;1.40;;;22.50;55.10;;;;;;5223987;28;20045;-59
2021/10/27 10:39:48;;;;;;;;;;;22.50;54.90;;;;;;5231311;28;20052;-57
2021/10/27 10:57:40;;;;;;;2.30;1.48;;;22.80;54.90;;;;;;5230717;28;20044;-57
2021/10/27 11:27:00;;;;;;;6.70;1.70;;;23.80;54.00;;;;;;5241638;28;20043;-58
2021/10/27 11:41:19;;;;;;;12.02;2.00;;;24.00;54.00;;;;;;5245731;28;20527;-57
2021/10/27 11:46:56;;;;;;;4.72;1.35;;;24.00;54.00;;;;;;5234794;28;20044;-55
2021/10/27 11:49:36;;;;;;;8.57;1.55;;;24.00;54.10;;;;;;4893378;28;10000047;-56
2021/10/27 11:52:10;;;;;;;4.35;1.35;;;24.00;54.10;;;;;;5233534;28;20044;-57
2021/10/27 11:54:53;;;;;;;7.63;1.65;;;24.00;54.30;;;;;;5238112;28;20042;-55
2021/10/27 11:57:29;;;;;;;;;;;24.00;54.20;;;;;;5212610;28;20052;-57
2021/10/27 12:00:06;;;;;;;3.70;1.58;;;23.90;54.30;;;;;;5239535;28;19930;-57
2021/10/27 12:02:54;;;;;;;2.28;1.15;;;23.90;54.30;;;;;;5240619;28;20055;-57
2021/10/27 12:05:35;;;;;;;4.32;1.58;;;23.90;54.30;;;;;;5241297;28;20051;-55
2021/10/27 12:13:51;;;;;;;4.28;1.50;;;23.90;54.60;;;;;;5246154;28;20052;-57
2021/10/27 12:19:01;;;;;;;13.55;1.70;;;23.90;54.60;;;;;;5226779;28;20048;-58
2021/10/27 12:21:35;;;;;;;6.70;1.50;;;23.90;54.70;;;;;;5246878;28;20503;-56
2021/10/27 12:24:15;;;;;;;11.32;1.67;;;24.00;54.80;;;;;;5231125;28;20055;-55
2021/10/27 12:41:16;;;;;;;8.90;1.70;;;23.90;55.00;;;;;;5189906;28;20036;-57
2021/10/27 12:43:48;;;;;;;8.43;1.40;;;23.80;54.90;;;;;;5234471;28;20055;-57
2021/10/27 12:46:21;;;;;;;3.42;1.73;;;23.80;54.80;;;;;;5231900;28;20131;-57
2021/10/27 12:48:53;;;;;;;7.43;2.05;;;23.80;54.80;;;;;;5213210;28;20067;-56
2021/10/27 12:51:30;;;;;;;18.17;1.50;;;23.80;54.70;;;;;;5222458;28;20674;-56
2021/10/27 12:54:14;;;;;;;5.72;1.67;;;23.80;55.30;;;;;;5231266;28;20048;-58
2021/10/27 12:56:46;;;;;;;9.73;1.88;;;23.80;54.80;;;;;;5229912;28;20044;-58
2021/10/27 12:59:28;;;;;;;8.02;1.67;;;23.80;55.10;;;;;;5250529;28;20044;-56
2021/10/27 13:02:16;;;;;;;15.85;2.17;;;23.90;55.50;;;;;;5246284;28;20416;-54
2021/10/27 13:04:55;;;;;;;9.75;1.77;;;23.90;55.80;;;;;;5252044;28;20570;-55
2021/10/27 13:07:36;;;;;;;7.57;1.42;;;23.90;55.90;;;;;;5247612;28;20130;-55
2021/10/27 13:10:32;;;;;;;8.30;1.80;;;23.90;55.90;;;;;;5246457;28;21049;-56
2021/10/27 13:16:14;;;;;;;7.82;2.00;;;24.00;55.80;;;;;;5177656;28;20055;-56
2021/10/27 13:19:04;;;;;;;6.43;1.83;;;24.00;55.70;;;;;;5219887;28;20407;-56
2021/10/27 13:21:59;;;;;;;10.57;2.22;;;24.10;55.80;;;;;;5228293;28;20051;-57
2021/10/27 13:30:36;;;;;;;5.85;1.60;;;24.30;56.00;;;;;;5143889;28;20070;-55
2021/10/27 13:33:09;;;;;;;13.77;2.10;;;24.30;56.00;;;;;;5130687;28;20050;-56
2021/10/27 13:35:41;;;;;;;6.55;1.73;;;24.40;56.10;;;;;;5195137;28;20040;-56
2021/10/27 13:49:40;;;;;;;10.80;1.85;;;24.50;55.80;;;;;;5256931;28;20055;-56
2021/10/27 13:58:42;;;;;;;9.27;1.92;;;24.60;55.10;;;;;;5234496;28;20059;-55
2021/10/27 14:09:26;;;;;;;5.75;2.03;;;24.60;54.90;;;;;;5234975;28;20056;-56
2021/10/27 14:12:29;;;;;;;14.43;1.80;;;24.60;54.90;;;;;;5235009;28;20543;-58
2021/10/27 14:15:41;;;;;;;17.75;2.95;;;24.70;55.10;;;;;;5236076;28;20044;-58
2021/10/27 14:18:34;;;;;;;4.40;1.80;;;24.60;55.00;;;;;;5236186;28;20060;-55
2021/10/27 15:21:22;;;;;;;2.58;1.50;;;23.90;54.00;;;;;;5234506;28;20048;-58
2021/10/27 15:42:51;;;;;;;6.70;1.50;;;23.70;54.30;;;;;;5238695;28;20043;-58
2021/10/27 15:51:02;;;;;;;2.75;1.48;;;23.70;54.40;;;;;;5233654;28;20524;-58
2021/10/27 15:53:36;;;;;;;3.08;1.55;;;23.60;54.40;;;;;;5225211;28;20055;-57
2021/10/27 15:56:09;;;;;;;4.13;1.42;;;23.60;54.50;;;;;;5228325;28;20637;-58
2021/10/27 15:58:41;;;;;;;4.78;1.60;;;23.60;54.50;;;;;;5216838;28;20519;-57
2021/10/27 16:01:14;;;;;;;2.15;1.40;;;23.60;54.70;;;;;;5219388;28;20263;-55
2021/10/27 16:03:47;;;;;;;2.65;1.25;;;23.50;54.70;;;;;;5235377;28;20051;-57
2021/10/27 16:06:24;;;;;;;5.13;1.58;;;23.50;54.70;;;;;;5223291;28;20053;-59
2021/10/27 16:08:58;;;;;;;4.47;1.70;;;23.50;54.80;;;;;;5232342;28;20615;-57
2021/10/27 16:11:31;;;;;;;9.45;1.80;;;23.50;54.80;;;;;;5234976;28;20496;-57
2021/10/27 16:14:04;;;;;;;5.25;2.35;;;23.50;54.80;;;;;;5238447;28;21093;-58
2021/10/27 16:16:37;;;;;;;;;;;23.50;54.90;;;;;;5205054;28;20044;-56
2021/10/27 16:19:24;;;;;;;4.35;1.65;;;23.40;54.90;;;;;;5230773;28;19920;-57
2021/10/27 16:22:12;;;;;;;5.68;1.80;;;23.40;54.90;;;;;;5219931;28;20433;-56
2021/10/27 16:24:45;;;;;;;2.75;2.00;;;23.40;54.90;;;;;;5242913;28;20086;-57
2021/10/27 16:27:18;;;;;;;2.17;1.40;;;23.30;54.90;;;;;;5217186;28;20053;-56
2021/10/27 16:29:50;;;;;;;4.50;1.87;;;23.40;54.90;;;;;;5237016;28;20797;-56
2021/10/27 16:32:22;;;;;;;4.25;1.88;;;23.40;54.90;;;;;;5240015;28;20048;-56
2021/10/27 16:34:55;;;;;;;1.90;1.58;;;23.40;55.00;;;;;;5235521;28;20048;-58
2021/10/27 16:37:28;;;;;;;2.58;1.42;;;23.30;54.90;;;;;;5238627;28;20035;-56
2021/10/27 16:40:01;;;;;;;4.85;1.60;;;23.30;55.20;;;;;;5240375;28;20131;-56
2021/10/27 16:42:35;;;;;;;3.85;1.67;;;23.30;55.40;;;;;;5244912;28;20190;-57
2021/10/27 16:45:10;;;;;;;4.07;1.58;;;23.30;55.50;;;;;;5240731;28;20135;-56
2021/10/27 16:47:43;;;;;;;5.88;1.70;;;23.30;55.60;;;;;;5237333;28;25153;-57
2021/10/27 16:50:16;;;;;;;3.50;1.63;;;23.30;56.40;;;;;;5229137;28;20592;-56
2021/10/27 16:52:49;;;;;;;3.38;1.70;;;23.30;55.60;;;;;;5217053;28;20258;-56
2021/10/27 16:55:21;;;;;;;3.90;1.67;;;23.30;55.60;;;;;;5196684;28;20048;-56
2021/10/27 16:57:56;;;;;;;3.83;1.85;;;23.30;55.60;;;;;;5203003;28;20554;-59
2021/10/27 17:00:30;;;;;;;2.88;1.55;;;23.30;55.20;;;;;;5222863;28;20453;-57
2021/10/27 17:03:03;;;;;;;8.90;1.98;;;23.30;55.60;;;;;;5216870;28;20052;-57
2021/10/27 17:05:36;;;;;;;13.20;2.75;;;23.30;55.70;;;;;;5222738;28;21320;-57
2021/10/27 17:08:10;;;;;;;11.90;2.35;;;23.30;55.90;;;;;;5224073;28;20054;-54
2021/10/27 17:10:49;;;;;;;4.65;1.65;;;23.30;56.00;;;;;;5224816;28;20048;-55
2021/10/27 17:13:23;;;;;;;8.05;2.05;;;23.30;56.10;;;;;;5198357;28;20451;-56
2021/10/27 17:15:57;;;;;;;5.95;1.60;;;23.30;56.10;;;;;;5234245;28;20049;-55
2021/10/27 17:18:31;;;;;;;9.50;1.50;;;23.30;56.00;;;;;;5233963;28;20569;-58
2021/10/27 17:21:07;;;;;;;6.70;1.77;;;23.30;56.00;;;;;;5228320;28;20036;-53
2021/10/27 17:23:40;;;;;;;9.82;2.35;;;23.30;56.00;;;;;;5231948;28;20055;-57
2021/10/27 17:26:12;;;;;;;6.72;1.58;;;23.30;55.90;;;;;;5228747;28;20040;-55
2021/10/27 17:28:45;;;;;;;7.30;2.00;;;23.30;55.90;;;;;;5231395;28;20807;-53
2021/10/27 17:31:17;;;;;;;5.53;1.77;;;23.30;55.90;;;;;;5233491;28;20413;-55
2021/10/27 17:33:50;;;;;;;5.68;1.88;;;23.30;55.80;;;;;;5238890;28;20040;-52
2021/10/27 17:36:26;;;;;;;5.75;2.47;;;23.30;55.80;;;;;;5233893;28;20539;-54
2021/10/27 17:38:59;;;;;;;3.50;1.77;;;23.30;55.80;;;;;;5243647;28;20159;-58
2021/10/27 17:41:32;;;;;;;;;;;23.30;55.90;;;;;;5232113;28;20178;-56
2021/10/27 17:44:06;;;;;;;6.57;1.60;;;23.20;56.30;;;;;;5234503;28;19928;-52
2021/10/27 17:47:28;;;;;;;7.03;1.64;;;23.20;56.20;;;;;;4535812;28;10000895;-53
2021/10/27 17:52:24;;;;;;;7.40;1.65;;;23.30;56.30;;;;;;5213190;28;20371;-52
2021/10/27 18:00:38;;;;;;;6.82;2.28;;;23.20;56.30;;;;;;5201589;28;20051;-52
2021/10/27 18:03:11;;;;;;;10.63;4.20;;;23.20;57.00;;;;;;5219330;28;20051;-60
2021/10/27 18:05:44;;;;;;;16.90;5.90;;;23.20;56.10;;;;;;5214119;28;20056;-55
2021/10/27 18:08:19;;;;;;;11.95;4.80;;;23.20;55.50;;;;;;5219931;28;20048;-59
2021/10/27 18:11:04;;;;;;;16.13;4.90;;;23.20;55.30;;;;;;5223191;28;20525;-62
2021/10/27 18:13:40;;;;;;;11.48;4.38;;;23.20;55.50;;;;;;5225011;28;20062;-54
2021/10/27 18:19:06;;;;;;;11.55;4.00;;;23.20;55.70;;;;;;5220746;28;20046;-56
2021/10/27 18:21:57;;;;;;;12.90;4.15;;;23.20;55.70;;;;;;5221408;28;20045;-60
2021/10/27 18:25:00;;;;;;;12.32;5.00;;;23.20;55.80;;;;;;5227600;28;20505;-53
2021/10/27 18:27:49;;;;;;;8.68;4.20;;;23.30;55.80;;;;;;5219024;28;20223;-57
2021/10/27 18:36:19;;;;;;;9.38;3.20;;;23.30;56.30;;;;;;5226986;28;20052;-56
2021/10/27 18:39:03;;;;;;;4.65;3.05;;;23.30;56.20;;;;;;5214192;28;20055;-54
2021/10/27 18:41:38;;;;;;;7.70;3.28;;;23.30;56.10;;;;;;5221382;28;20048;-57
2021/10/27 18:44:11;;;;;;;7.07;3.20;;;23.30;56.10;;;;;;5226189;28;20055;-53
2021/10/27 18:46:47;;;;;;;6.30;2.65;;;23.30;56.10;;;;;;5224184;28;20044;-52